createdAt,value
2018-12-06T00:00:17.272Z,6.87
2018-12-06T00:02:45.681Z,5.27
2018-12-06T00:05:17.072Z,4.47
2018-12-06T00:07:56.705Z,5.20
2018-12-06T00:10:25.089Z,6.40
2018-12-06T00:12:53.540Z,5.93
2018-12-06T00:15:26.633Z,6.60
2018-12-06T00:17:55.016Z,6.27
2018-12-06T00:20:23.393Z,7.70
2018-12-06T00:22:51.805Z,3.53
2018-12-06T00:25:20.380Z,3.03
2018-12-06T00:27:49.154Z,3.10
2018-12-06T00:30:36.769Z,4.70
2018-12-06T00:33:05.917Z,4.57
2018-12-06T00:35:34.438Z,4.07
2018-12-06T00:38:02.843Z,5.60
2018-12-06T00:40:31.706Z,4.37
2018-12-06T00:43:00.108Z,4.57
2018-12-06T00:45:28.496Z,5.50
2018-12-06T00:47:56.958Z,4.53
2018-12-06T00:50:25.329Z,5.67
2018-12-06T00:52:54.029Z,5.23
2018-12-06T00:55:22.425Z,5.87
2018-12-06T00:57:50.821Z,4.23
2018-12-06T01:00:19.242Z,4.83
2018-12-06T01:02:47.629Z,4.20
2018-12-06T01:05:16.032Z,5.63
2018-12-06T01:07:44.477Z,6.60
2018-12-06T01:10:13.409Z,2.87
2018-12-06T01:12:41.841Z,6.50
2018-12-06T01:15:10.325Z,3.97
2018-12-06T01:17:38.722Z,5.93
2018-12-06T01:20:08.223Z,2.80
2018-12-06T01:22:36.769Z,2.00
2018-12-06T01:25:06.497Z,2.93
2018-12-06T01:27:34.888Z,4.53
2018-12-06T01:30:03.822Z,4.47
2018-12-06T01:32:32.225Z,3.43
2018-12-06T01:35:00.620Z,2.20
2018-12-06T01:37:29.063Z,2.17
2018-12-06T01:39:57.461Z,9.60
2018-12-06T01:42:25.973Z,4.67
2018-12-06T01:44:54.399Z,8.03
2018-12-06T01:47:22.800Z,4.33
2018-12-06T01:49:51.186Z,10.17
2018-12-06T01:52:19.706Z,6.73
2018-12-06T01:54:48.331Z,4.90
2018-12-06T01:57:16.865Z,5.10
2018-12-06T01:59:45.392Z,3.43
2018-12-06T02:02:13.865Z,3.77
2018-12-06T02:04:42.249Z,2.83
2018-12-06T02:07:10.694Z,1.93
2018-12-06T02:09:39.100Z,7.63
2018-12-06T02:12:07.559Z,5.97
2018-12-06T02:14:35.989Z,3.73
2018-12-06T02:17:04.393Z,5.07
2018-12-06T02:19:33.089Z,4.63
2018-12-06T02:22:01.720Z,3.37
2018-12-06T02:24:31.014Z,4.30
2018-12-06T02:26:59.389Z,6.53
2018-12-06T02:29:31.974Z,3.73
2018-12-06T02:32:00.364Z,5.40
2018-12-06T02:34:28.732Z,4.30
2018-12-06T02:36:57.146Z,2.23
2018-12-06T02:39:25.542Z,4.00
2018-12-06T02:41:53.910Z,3.63
2018-12-06T02:44:22.341Z,4.40
2018-12-06T02:46:50.733Z,5.13
2018-12-06T02:49:19.113Z,5.60
2018-12-06T02:51:47.528Z,7.47
2018-12-06T02:54:16.000Z,5.23
2018-12-06T02:56:45.097Z,5.53
2018-12-06T02:59:14.120Z,6.40
2018-12-06T03:01:42.641Z,6.20
2018-12-06T03:04:13.004Z,3.70
2018-12-06T03:06:41.425Z,7.10
2018-12-06T03:09:09.839Z,5.50
2018-12-06T03:11:38.349Z,4.90
2018-12-06T03:14:07.282Z,4.20
2018-12-06T03:16:35.678Z,5.93
2018-12-06T03:19:04.259Z,8.93
2018-12-06T03:21:32.669Z,6.23
2018-12-06T03:24:01.037Z,3.90
2018-12-06T03:26:29.433Z,4.80
2018-12-06T03:28:57.828Z,3.83
2018-12-06T03:31:26.300Z,4.10
2018-12-06T03:33:54.841Z,12.17
2018-12-06T03:36:23.346Z,6.70
2018-12-06T03:38:51.752Z,4.97
2018-12-06T03:41:20.145Z,8.60
2018-12-06T03:43:48.609Z,6.47
2018-12-06T03:46:17.381Z,6.40
2018-12-06T03:48:45.772Z,4.77
2018-12-06T03:51:14.476Z,7.43
2018-12-06T03:53:43.108Z,4.17
2018-12-06T03:56:11.503Z,6.30
2018-12-06T03:58:40.690Z,5.80
2018-12-06T04:01:09.083Z,6.67
2018-12-06T04:03:37.633Z,5.50
2018-12-06T04:06:06.058Z,4.50
2018-12-06T04:08:34.424Z,5.43
2018-12-06T04:11:02.940Z,5.07
2018-12-06T04:13:31.395Z,3.17
2018-12-06T04:15:59.796Z,9.73
2018-12-06T04:18:28.186Z,7.93
2018-12-06T04:20:56.691Z,2.97
2018-12-06T04:23:26.001Z,5.40
2018-12-06T04:25:54.376Z,5.47
2018-12-06T04:28:22.886Z,7.77
2018-12-06T04:30:51.250Z,6.23
2018-12-06T04:33:19.633Z,3.23
2018-12-06T04:35:48.229Z,4.33
2018-12-06T04:38:16.605Z,7.37
2018-12-06T04:40:45.186Z,6.93
2018-12-06T04:43:13.638Z,5.07
2018-12-06T04:45:42.114Z,3.53
2018-12-06T04:48:10.571Z,8.83
2018-12-06T04:50:39.016Z,8.40
2018-12-06T04:53:07.401Z,5.03
2018-12-06T04:55:35.814Z,5.17
2018-12-06T04:58:04.270Z,6.90
2018-12-06T05:00:33.404Z,8.60
2018-12-06T05:03:01.788Z,4.67
2018-12-06T05:05:30.220Z,8.17
2018-12-06T05:07:58.812Z,6.07
2018-12-06T05:10:27.237Z,8.13
2018-12-06T05:12:55.683Z,5.10
2018-12-06T05:15:24.063Z,6.53
2018-12-06T05:17:52.442Z,3.40
2018-12-06T05:20:20.868Z,11.70
2018-12-06T05:22:49.361Z,5.40
2018-12-06T05:25:18.073Z,6.30
2018-12-06T05:27:46.513Z,6.17
2018-12-06T05:30:15.110Z,3.53
2018-12-06T05:32:43.493Z,4.27
2018-12-06T05:35:12.080Z,7.03
2018-12-06T05:37:40.474Z,8.10
2018-12-06T05:40:08.995Z,8.57
2018-12-06T05:42:37.534Z,5.43
2018-12-06T05:45:06.181Z,6.63
2018-12-06T05:47:34.637Z,4.93
2018-12-06T05:50:03.062Z,4.27
2018-12-06T05:52:31.449Z,4.83
2018-12-06T05:54:59.863Z,8.80
2018-12-06T05:57:28.297Z,7.33
2018-12-06T05:59:56.712Z,6.83
2018-12-06T06:02:25.467Z,5.63
2018-12-06T06:04:54.061Z,3.47
2018-12-06T06:07:22.466Z,4.83
2018-12-06T06:09:50.845Z,5.57
2018-12-06T06:12:19.273Z,16.60
2018-12-06T06:14:47.653Z,6.23
2018-12-06T06:17:16.039Z,10.93
2018-12-06T06:19:44.508Z,5.60
2018-12-06T06:22:12.924Z,12.17
2018-12-06T06:24:41.333Z,8.60
2018-12-06T06:27:09.737Z,10.57
2018-12-06T06:29:38.323Z,12.30
2018-12-06T06:32:06.377Z,10.33
2018-12-06T06:34:34.810Z,10.27
2018-12-06T06:37:03.208Z,7.60
2018-12-06T06:39:31.646Z,12.47
2018-12-06T06:42:00.180Z,6.37
2018-12-06T06:44:28.608Z,14.53
2018-12-06T06:46:57.010Z,8.57
2018-12-06T06:49:25.438Z,12.03
2018-12-06T06:51:54.140Z,7.70
2018-12-06T06:54:22.702Z,9.10
2018-12-06T06:56:51.149Z,12.00
2018-12-06T06:59:25.863Z,15.63
2018-12-06T07:01:49.953Z,17.00
2018-12-06T07:04:18.894Z,12.63
2018-12-06T07:06:47.338Z,9.73
2018-12-06T07:09:15.719Z,9.87
2018-12-06T07:11:44.237Z,9.70
2018-12-06T07:14:12.709Z,12.80
2018-12-06T07:16:42.453Z,10.87
2018-12-06T07:19:10.989Z,8.53
2018-12-06T07:21:39.367Z,5.87
2018-12-06T07:24:08.072Z,11.83
2018-12-06T07:26:36.645Z,11.13
2018-12-06T07:29:05.073Z,14.50
2018-12-06T07:31:33.505Z,10.63
2018-12-06T07:34:02.034Z,10.47
2018-12-06T07:36:30.510Z,12.20
2018-12-06T07:38:58.958Z,10.33
2018-12-06T07:41:27.489Z,8.20
2018-12-06T07:43:55.868Z,13.37
2018-12-06T07:46:24.465Z,10.80
2018-12-06T07:48:53.514Z,15.07
2018-12-06T07:51:21.929Z,12.87
2018-12-06T07:53:50.321Z,12.57
2018-12-06T07:56:18.745Z,10.53
2018-12-06T07:58:47.141Z,13.73
2018-12-06T08:01:15.643Z,10.27
2018-12-06T08:03:44.113Z,12.23
2018-12-06T08:06:13.263Z,15.10
2018-12-06T08:08:41.652Z,14.33
2018-12-06T08:11:10.075Z,10.70
2018-12-06T08:13:38.473Z,11.30
2018-12-06T08:16:06.867Z,16.97
2018-12-06T08:18:35.375Z,17.37
2018-12-06T08:21:03.796Z,14.60
2018-12-06T08:23:32.227Z,13.97
2018-12-06T08:26:00.690Z,14.80
2018-12-06T08:28:29.164Z,13.73
2018-12-06T08:30:57.533Z,17.47
2018-12-06T08:33:26.033Z,16.13
2018-12-06T08:35:54.454Z,15.47
2018-12-06T08:38:22.856Z,15.17
2018-12-06T08:40:51.282Z,19.20
2018-12-06T08:43:19.717Z,14.93
2018-12-06T08:45:48.219Z,16.27
2018-12-06T08:48:17.105Z,17.67
2018-12-06T08:50:45.507Z,15.33
2018-12-06T08:53:13.930Z,18.37
2018-12-06T08:55:42.557Z,20.57
2018-12-06T08:58:10.936Z,16.93
2018-12-06T09:00:39.312Z,15.33
2018-12-06T09:03:07.757Z,17.20
2018-12-06T09:05:36.144Z,12.80
2018-12-06T09:08:05.179Z,13.47
2018-12-06T09:10:33.694Z,17.60
2018-12-06T09:13:02.076Z,16.17
2018-12-06T09:15:30.501Z,16.10
2018-12-06T09:17:58.905Z,14.43
2018-12-06T09:20:27.967Z,15.00
2018-12-06T09:22:56.359Z,14.27
2018-12-06T09:25:24.908Z,22.03
2018-12-06T09:27:53.330Z,17.50
2018-12-06T09:30:21.749Z,12.80
2018-12-06T09:32:50.170Z,17.53
2018-12-06T09:35:18.570Z,22.43
2018-12-06T09:37:46.961Z,22.07
2018-12-06T09:40:15.365Z,22.63
2018-12-06T09:42:43.967Z,12.57
2018-12-06T09:45:12.481Z,15.40
2018-12-06T09:47:40.913Z,12.10
2018-12-06T09:50:09.459Z,13.80
2018-12-06T09:52:37.893Z,19.03
2018-12-06T09:55:06.561Z,12.57
2018-12-06T09:57:34.960Z,13.03
2018-12-06T10:00:04.293Z,14.77
2018-12-06T10:02:32.712Z,13.57
2018-12-06T10:05:01.096Z,17.20
2018-12-06T10:07:29.835Z,21.17
2018-12-06T10:09:58.487Z,21.03
2018-12-06T10:12:26.909Z,16.70
2018-12-06T10:14:55.289Z,15.43
2018-12-06T10:17:23.745Z,22.53
2018-12-06T10:19:52.247Z,21.90
2018-12-06T10:22:20.639Z,20.23
2018-12-06T10:24:49.046Z,22.00
2018-12-06T10:27:17.449Z,31.57
2018-12-06T10:29:45.817Z,17.77
2018-12-06T10:32:14.288Z,20.47
2018-12-06T10:34:42.688Z,17.13
2018-12-06T10:37:11.060Z,20.63
2018-12-06T10:39:39.518Z,19.70
2018-12-06T10:42:07.922Z,23.57
2018-12-06T10:44:36.317Z,21.50
2018-12-06T10:47:04.738Z,21.33
2018-12-06T10:49:33.141Z,17.10
2018-12-06T10:52:01.800Z,20.93
2018-12-06T10:54:30.502Z,18.03
2018-12-06T10:56:58.902Z,17.20
2018-12-06T10:59:27.277Z,24.97
2018-12-06T11:02:00.977Z,20.30
2018-12-06T11:04:35.838Z,22.40
2018-12-06T11:07:06.030Z,21.93
2018-12-06T11:09:34.754Z,21.13
2018-12-06T11:12:04.143Z,22.63
2018-12-06T11:14:32.598Z,17.57
2018-12-06T11:17:01.017Z,16.47
2018-12-06T11:19:29.702Z,13.17
2018-12-06T11:21:58.142Z,15.63
2018-12-06T11:24:26.539Z,18.40
2018-12-06T11:26:55.033Z,20.50
2018-12-06T11:29:23.501Z,16.27
2018-12-06T11:31:51.981Z,16.47
2018-12-06T11:34:20.348Z,17.00
2018-12-06T11:36:48.769Z,18.43
2018-12-06T11:39:17.197Z,20.30
2018-12-06T11:42:21.002Z,21.37
2018-12-06T11:44:49.401Z,18.07
2018-12-06T11:47:17.810Z,16.07
2018-12-06T11:49:46.234Z,12.67
2018-12-06T11:52:14.637Z,16.13
2018-12-06T11:54:43.122Z,17.40
2018-12-06T11:57:11.569Z,18.23
2018-12-06T11:59:40.511Z,16.57
2018-12-06T12:02:10.177Z,21.87
2018-12-06T12:04:39.381Z,19.00
2018-12-06T12:07:07.761Z,17.77
2018-12-06T12:09:36.181Z,31.97
2018-12-06T12:12:05.130Z,17.77
2018-12-06T12:14:33.540Z,19.17
2018-12-06T12:17:01.989Z,15.33
2018-12-06T12:19:30.636Z,17.47
2018-12-06T12:21:59.030Z,16.30
2018-12-06T12:24:27.435Z,17.33
2018-12-06T12:26:56.157Z,18.07
2018-12-06T12:29:24.549Z,20.63
2018-12-06T12:31:52.970Z,19.87
2018-12-06T12:34:21.842Z,20.13
2018-12-06T12:36:50.229Z,19.40
2018-12-06T12:39:18.620Z,20.87
2018-12-06T12:41:47.247Z,20.53
2018-12-06T12:44:15.652Z,18.17
2018-12-06T12:46:44.178Z,19.30
2018-12-06T12:49:12.607Z,20.90
2018-12-06T12:51:40.988Z,17.03
2018-12-06T12:54:09.377Z,17.53
2018-12-06T12:56:37.783Z,16.33
2018-12-06T12:59:06.203Z,19.80
2018-12-06T13:01:34.674Z,20.70
2018-12-06T13:04:03.193Z,17.37
2018-12-06T13:06:31.761Z,22.47
2018-12-06T13:09:00.232Z,18.13
2018-12-06T13:11:28.668Z,24.70
2018-12-06T13:13:57.582Z,21.80
2018-12-06T13:16:25.962Z,23.83
2018-12-06T13:18:54.885Z,25.23
2018-12-06T13:21:23.356Z,26.93
2018-12-06T13:23:51.751Z,28.50
2018-12-06T13:26:20.194Z,27.43
2018-12-06T13:28:49.721Z,27.13
2018-12-06T13:31:18.406Z,23.50
2018-12-06T13:33:46.930Z,27.93
2018-12-06T13:36:15.698Z,26.43
2018-12-06T13:38:44.909Z,27.87
2018-12-06T13:41:13.352Z,27.87
2018-12-06T13:43:41.755Z,22.47
2018-12-06T13:46:10.180Z,25.37
2018-12-06T13:48:38.815Z,26.07
2018-12-06T13:51:07.193Z,28.77
2018-12-06T13:53:35.746Z,30.37
2018-12-06T13:56:04.466Z,27.83
2018-12-06T13:58:32.876Z,28.17
2018-12-06T14:01:01.582Z,28.50
2018-12-06T14:03:30.544Z,34.13
2018-12-06T14:05:58.937Z,28.40
2018-12-06T14:08:33.830Z,30.13
2018-12-06T14:11:02.338Z,29.40
2018-12-06T14:13:30.725Z,27.23
2018-12-06T14:15:59.709Z,32.30
2018-12-06T14:18:28.135Z,27.57
2018-12-06T14:20:56.753Z,25.30
2018-12-06T14:23:25.173Z,22.50
2018-12-06T14:25:53.557Z,24.17
2018-12-06T14:28:22.567Z,24.97
2018-12-06T14:30:51.545Z,21.47
2018-12-06T14:33:20.068Z,22.63
2018-12-06T14:35:48.474Z,22.43
2018-12-06T14:38:16.925Z,27.23
2018-12-06T14:40:45.305Z,21.97
2018-12-06T14:43:15.164Z,26.20
2018-12-06T14:45:44.238Z,29.83
2018-12-06T14:48:12.985Z,28.37
2018-12-06T14:50:41.361Z,29.43
2018-12-06T14:53:09.797Z,30.17
2018-12-06T14:55:38.194Z,30.97
2018-12-06T14:58:06.613Z,34.70
2018-12-06T15:00:35.225Z,35.10
2018-12-06T15:03:03.897Z,35.33
2018-12-06T15:05:32.310Z,37.10
2018-12-06T15:08:00.829Z,36.73
2018-12-06T15:10:29.254Z,37.93
2018-12-06T15:12:57.703Z,42.80
2018-12-06T15:15:26.149Z,40.07
2018-12-06T15:17:54.796Z,43.40
2018-12-06T15:20:23.211Z,38.13
2018-12-06T15:22:51.654Z,40.73
2018-12-06T15:25:21.090Z,37.20
2018-12-06T15:27:50.209Z,40.67
2018-12-06T15:30:19.217Z,39.80
2018-12-06T15:32:47.656Z,41.00
2018-12-06T15:35:16.041Z,43.20
2018-12-06T15:37:44.485Z,36.57
2018-12-06T15:40:12.915Z,41.07
2018-12-06T15:42:41.342Z,43.17
2018-12-06T15:45:09.893Z,35.60
2018-12-06T15:47:41.283Z,35.63
2018-12-06T15:50:10.700Z,40.90
2018-12-06T15:52:39.108Z,35.23
2018-12-06T15:55:08.015Z,38.60
2018-12-06T15:57:36.473Z,36.40
2018-12-06T16:00:07.503Z,38.57
2018-12-06T16:02:35.993Z,34.97
2018-12-06T16:05:05.748Z,37.10
2018-12-06T16:07:34.135Z,32.83
2018-12-06T16:10:02.516Z,28.67
2018-12-06T16:12:30.926Z,29.37
2018-12-06T16:14:59.349Z,34.57
2018-12-06T16:17:27.722Z,31.47
2018-12-06T16:19:56.685Z,30.17
2018-12-06T16:22:25.090Z,32.00
2018-12-06T16:24:53.478Z,34.27
2018-12-06T16:27:21.931Z,35.63
2018-12-06T16:29:51.544Z,32.30
2018-12-06T16:32:20.537Z,29.93
2018-12-06T16:34:48.966Z,29.43
2018-12-06T16:37:17.401Z,33.87
2018-12-06T16:39:45.810Z,30.50
2018-12-06T16:42:14.387Z,26.97
2018-12-06T16:44:42.792Z,27.10
2018-12-06T16:47:11.164Z,28.07
2018-12-06T16:49:39.906Z,27.97
2018-12-06T16:52:08.627Z,24.00
2018-12-06T16:54:37.037Z,23.20
2018-12-06T16:57:05.487Z,25.63
2018-12-06T16:59:33.870Z,23.33
2018-12-06T17:02:02.269Z,18.97
2018-12-06T17:04:30.699Z,23.73
2018-12-06T17:06:59.131Z,24.63
2018-12-06T17:09:27.537Z,27.80
2018-12-06T17:11:55.973Z,25.97
2018-12-06T17:14:24.385Z,30.50
2018-12-06T17:16:52.773Z,29.33
2018-12-06T17:19:21.222Z,30.63
2018-12-06T17:21:50.439Z,29.50
2018-12-06T17:24:19.152Z,26.40
2018-12-06T17:26:47.592Z,29.27
2018-12-06T17:29:16.001Z,29.83
2018-12-06T17:31:44.393Z,34.53
2018-12-06T17:34:12.946Z,30.00
2018-12-06T17:36:41.436Z,31.27
2018-12-06T17:39:09.838Z,26.57
2018-12-06T17:41:38.325Z,30.93
2018-12-06T17:44:06.786Z,29.30
2018-12-06T17:46:35.161Z,36.57
2018-12-06T17:49:03.719Z,30.73
2018-12-06T17:51:32.146Z,33.53
2018-12-06T17:54:00.655Z,31.47
2018-12-06T17:56:29.126Z,28.83
2018-12-06T17:58:58.613Z,31.27
2018-12-06T18:01:28.363Z,32.47
2018-12-06T18:03:57.033Z,28.67
2018-12-06T18:06:25.428Z,40.97
2018-12-06T18:08:53.853Z,34.03
2018-12-06T18:11:22.317Z,31.37
2018-12-06T18:13:50.847Z,32.03
2018-12-06T18:16:19.800Z,36.53
2018-12-06T18:18:48.494Z,31.70
2018-12-06T18:21:16.954Z,38.30
2018-12-06T18:23:45.797Z,35.80
2018-12-06T18:26:20.870Z,36.07
2018-12-06T18:28:49.263Z,35.13
2018-12-06T18:31:17.714Z,41.63
2018-12-06T18:33:46.269Z,33.53
2018-12-06T18:36:14.689Z,43.03
2018-12-06T18:38:43.085Z,36.63
2018-12-06T18:41:11.545Z,38.83
2018-12-06T18:43:39.950Z,41.80
2018-12-06T18:46:08.377Z,40.83
2018-12-06T18:48:36.850Z,42.57
2018-12-06T18:51:05.253Z,41.40
2018-12-06T18:53:33.896Z,45.53
2018-12-06T18:56:02.746Z,41.43
2018-12-06T18:58:34.309Z,35.53
2018-12-06T19:01:01.664Z,38.03
2018-12-06T19:03:30.586Z,34.13
2018-12-06T19:05:59.140Z,37.13
2018-12-06T19:08:27.570Z,37.03
2018-12-06T19:10:56.108Z,32.30
2018-12-06T19:13:24.518Z,36.50
2018-12-06T19:15:52.908Z,33.17
2018-12-06T19:18:21.357Z,37.43
2018-12-06T19:20:51.102Z,34.17
2018-12-06T19:23:20.855Z,30.77
2018-12-06T19:25:53.075Z,39.67
2018-12-06T19:28:21.581Z,39.63
2018-12-06T19:30:50.041Z,43.67
2018-12-06T19:33:18.445Z,52.13
2018-12-06T19:35:46.869Z,44.97
2018-12-06T19:38:15.478Z,48.20
2018-12-06T19:40:43.883Z,56.10
2018-12-06T19:43:12.608Z,52.97
2018-12-06T19:45:41.028Z,43.03
2018-12-06T19:48:09.419Z,43.50
2018-12-06T19:50:38.017Z,45.73
2018-12-06T19:53:06.426Z,41.23
2018-12-06T19:55:34.871Z,60.20
2018-12-06T19:58:03.287Z,48.17
2018-12-06T20:00:31.892Z,52.87
2018-12-06T20:03:00.337Z,52.53
2018-12-06T20:05:28.849Z,59.57
2018-12-06T20:07:57.386Z,49.23
2018-12-06T20:10:25.900Z,62.57
2018-12-06T20:12:54.406Z,62.03
2018-12-06T20:15:22.796Z,66.93
2018-12-06T20:17:51.226Z,51.77
2018-12-06T20:20:23.598Z,50.13
2018-12-06T20:22:50.280Z,59.33
2018-12-06T20:25:18.826Z,47.17
2018-12-06T20:27:47.700Z,53.27
2018-12-06T20:30:16.096Z,57.40
2018-12-06T20:32:44.862Z,42.97
2018-12-06T20:35:13.272Z,42.20
2018-12-06T20:37:41.662Z,43.60
2018-12-06T20:40:10.134Z,37.87
2018-12-06T20:42:38.829Z,37.70
2018-12-06T20:45:07.391Z,40.07
2018-12-06T20:47:35.873Z,30.60
2018-12-06T20:50:04.588Z,32.90
2018-12-06T20:52:32.974Z,31.23
2018-12-06T20:55:01.417Z,29.47
2018-12-06T20:57:36.902Z,25.23
2018-12-06T21:00:01.384Z,28.30
2018-12-06T21:02:30.345Z,28.47
2018-12-06T21:04:58.765Z,27.13
2018-12-06T21:07:27.405Z,25.23
2018-12-06T21:09:55.865Z,18.93
2018-12-06T21:12:24.405Z,19.23
2018-12-06T21:14:52.833Z,20.47
2018-12-06T21:17:21.418Z,19.57
2018-12-06T21:19:49.827Z,14.90
2018-12-06T21:22:18.230Z,19.97
2018-12-06T21:24:46.641Z,13.67
2018-12-06T21:27:15.039Z,16.20
2018-12-06T21:29:43.906Z,17.13
2018-12-06T21:32:12.325Z,14.73
2018-12-06T21:34:40.720Z,15.77
2018-12-06T21:37:09.357Z,13.20
2018-12-06T21:39:37.875Z,15.93
2018-12-06T21:42:06.264Z,17.20
2018-12-06T21:44:34.665Z,16.93
2018-12-06T21:47:03.921Z,15.90
2018-12-06T21:49:32.337Z,15.20
2018-12-06T21:52:00.728Z,16.20
2018-12-06T21:54:29.177Z,19.67
2018-12-06T21:56:57.713Z,16.50
2018-12-06T21:59:26.129Z,14.23
2018-12-06T22:02:04.710Z,15.97
2018-12-06T22:04:33.125Z,17.30
2018-12-06T22:07:01.549Z,15.20
2018-12-06T22:09:29.993Z,15.90
2018-12-06T22:11:58.434Z,18.20
2018-12-06T22:14:26.856Z,18.03
2018-12-06T22:16:55.277Z,12.97
2018-12-06T22:19:23.858Z,15.93
2018-12-06T22:21:52.241Z,16.57
2018-12-06T22:24:20.672Z,17.00
2018-12-06T22:26:49.077Z,16.73
2018-12-06T22:29:17.489Z,15.30
2018-12-06T22:31:46.205Z,17.53
2018-12-06T22:34:14.775Z,20.20
2018-12-06T22:36:43.181Z,16.83
2018-12-06T22:39:11.682Z,12.93
2018-12-06T22:41:40.069Z,11.93
2018-12-06T22:44:08.478Z,15.00
2018-12-06T22:46:36.949Z,12.60
2018-12-06T22:49:05.477Z,16.10
2018-12-06T22:51:33.941Z,15.63
2018-12-06T22:54:02.546Z,18.20
2018-12-06T22:56:31.033Z,15.90
2018-12-06T22:58:59.450Z,15.83
2018-12-06T23:01:33.332Z,14.43
2018-12-06T23:04:01.886Z,16.33
2018-12-06T23:06:30.279Z,20.97
2018-12-06T23:08:58.721Z,16.20
2018-12-06T23:11:27.143Z,15.47
2018-12-06T23:13:55.726Z,16.83
2018-12-06T23:16:24.345Z,13.67
2018-12-06T23:18:52.745Z,14.40
2018-12-06T23:21:21.157Z,13.77
2018-12-06T23:23:49.740Z,15.47
2018-12-06T23:28:53.509Z,12.87
2018-12-06T23:31:21.901Z,11.17
2018-12-06T23:33:50.832Z,12.70
2018-12-06T23:36:20.277Z,19.97
2018-12-06T23:38:48.690Z,15.00
2018-12-06T23:41:17.084Z,14.80
2018-12-06T23:43:45.518Z,14.90
2018-12-06T23:46:13.893Z,19.63
2018-12-06T23:48:42.329Z,20.17
2018-12-06T23:51:21.981Z,22.30
2018-12-06T23:53:50.386Z,13.93
2018-12-06T23:56:18.865Z,19.97
2018-12-06T23:58:47.328Z,20.87
